Time;durP1;ratioP1;P1;durP2;ratioP2;P2;SDS_P1;SDS_P2;PMS_P1;PMS_P2;Temp;Humidity;BMP_temperature;BMP_pressure;BME280_temperature;BME280_humidity;BME280_pressure;Samples;Min_cycle;Max_cycle;Signal;HPM_P1;HPM_P2
2021/07/01 00:00:34;;;;;;;1.93;1.67;;;;;;;21.48;100.00;97115.16;5059016;28;20262;-66
2021/07/01 00:03:01;;;;;;;1.50;1.33;;;;;;;22.11;100.00;97221.50;5046167;28;20673;-64
2021/07/01 00:05:28;;;;;;;1.60;1.40;;;;;;;22.39;100.00;97277.63;5047316;28;20307;-66
2021/07/01 00:07:54;;;;;;;1.37;1.27;;;;;;;21.43;100.00;97119.28;5037894;28;20253;-66
2021/07/01 00:10:25;;;;;;;2.10;1.30;;;;;;;21.97;100.00;97207.56;5064877;28;20231;-65
2021/07/01 00:12:52;;;;;;;1.47;1.37;;;;;;;22.30;100.00;97264.63;5059373;28;20213;-66
2021/07/01 00:15:20;;;;;;;1.57;1.47;;;;;;;22.16;100.00;97234.41;5045364;28;20659;-67
2021/07/01 00:17:47;;;;;;;1.53;1.43;;;;;;;22.40;100.00;97284.47;5022352;28;20259;-67
2021/07/01 00:20:14;;;;;;;3.37;1.53;;;;;;;22.41;100.00;97287.91;5046010;28;20196;-66
2021/07/01 00:22:40;;;;;;;1.43;1.33;;;;;;;21.31;100.00;97102.00;5069088;28;20224;-65
2021/07/01 00:25:09;;;;;;;2.30;1.40;;;;;;;21.01;100.00;97067.16;5066120;28;20259;-67
2021/07/01 00:27:36;;;;;;;1.80;1.50;;;;;;;21.20;100.00;97071.91;5018700;28;20204;-67
2021/07/01 00:30:04;;;;;;;1.70;1.40;;;;;;;22.01;100.00;97214.47;5031420;28;20363;-66
2021/07/01 00:32:31;;;;;;;1.40;1.30;;;;;;;22.40;100.00;97276.78;5047582;28;20232;-66
2021/07/01 00:34:57;;;;;;;1.63;1.40;;;;;;;22.40;100.00;97274.22;5045197;28;20637;-67
2021/07/01 00:37:24;;;;;;;1.73;1.47;;;;;;;22.25;100.00;97255.09;5048745;28;20246;-66
2021/07/01 00:39:51;;;;;;;1.50;1.27;;;;;;;22.07;100.00;97226.53;5068387;28;20575;-66
2021/07/01 00:42:17;;;;;;;1.40;1.30;;;;;;;22.41;100.00;97275.09;5021376;28;20230;-67
2021/07/01 00:44:44;;;;;;;2.27;1.40;;;;;;;22.39;100.00;97272.50;5051984;28;20254;-66
2021/07/01 00:47:10;;;;;;;1.60;1.20;;;;;;;22.20;100.00;97242.19;5070915;28;20826;-65
2021/07/01 00:49:37;;;;;;;2.40;1.30;;;;;;;22.41;100.00;97272.53;5047635;28;20196;-67
2021/07/01 00:52:04;;;;;;;1.30;1.20;;;;;;;22.38;100.00;97265.63;5049063;28;20227;-66
2021/07/01 00:54:31;;;;;;;2.53;1.30;;;;;;;22.34;100.00;97266.41;5044637;28;20263;-66
2021/07/01 00:56:57;;;;;;;1.40;1.30;;;;;;;21.99;100.00;97199.94;5046257;28;20196;-66
2021/07/01 00:59:24;;;;;;;1.63;1.30;;;;;;;22.22;100.00;97247.34;5024474;28;20220;-65
2021/07/01 01:01:51;;;;;;;1.43;1.33;;;;;;;22.39;100.00;97272.50;5061556;28;20223;-66
2021/07/01 01:04:18;;;;;;;1.33;1.20;;;;;;;21.50;100.00;97116.91;5066856;28;20236;-67
2021/07/01 01:06:45;;;;;;;1.37;1.23;;;;;;;22.22;100.00;97248.22;5059575;28;20220;-67
2021/07/01 01:09:11;;;;;;;1.30;1.20;;;;;;;22.40;100.00;97273.34;5029838;28;20224;-66
2021/07/01 01:11:39;;;;;;;1.47;1.37;;;;;;;22.31;100.00;97268.91;5036710;28;20225;-67
2021/07/01 01:14:06;;;;;;;1.40;1.30;;;;;;;22.31;100.00;97260.34;5032885;28;20244;-67
2021/07/01 01:16:33;;;;;;;1.30;1.20;;;;;;;22.29;100.00;97265.44;5026053;28;20284;-66
2021/07/01 01:18:59;;;;;;;3.37;1.20;;;;;;;21.90;100.00;97187.78;5048427;28;20197;-66
2021/07/01 01:21:27;;;;;;;4.30;1.60;;;;;;;21.64;100.00;97142.78;5065821;28;20213;-66
2021/07/01 01:23:58;;;;;;;1.27;1.17;;;;;;;22.09;100.00;97219.78;5033753;28;20254;-67
2021/07/01 01:26:25;;;;;;;1.37;1.27;;;;;;;22.21;100.00;97249.06;5033171;28;20766;-64
2021/07/01 01:28:52;;;;;;;2.10;1.23;;;;;;;22.15;100.00;97230.13;5030414;28;20728;-67
2021/07/01 01:31:18;;;;;;;2.70;1.23;;;;;;;22.38;100.00;97275.88;5031654;28;20283;-68
2021/07/01 01:33:46;;;;;;;1.07;1.03;;;;;;;22.20;100.00;97244.75;5042410;28;20204;-67
2021/07/01 01:36:13;;;;;;;2.73;1.50;;;;;;;21.91;100.00;97194.66;5044085;28;20276;-67
2021/07/01 01:38:39;;;;;;;1.20;1.10;;;;;;;22.25;100.00;97247.41;5045322;28;20200;-66
2021/07/01 01:41:06;;;;;;;1.53;1.40;;;;;;;22.35;100.00;97259.63;5008057;28;20708;-65
2021/07/01 01:43:32;;;;;;;1.23;1.20;;;;;;;22.03;100.00;97206.84;5031485;28;20251;-67
2021/07/01 01:45:59;;;;;;;1.50;1.40;;;;;;;22.09;100.00;97218.09;5043976;28;20270;-66
2021/07/01 01:48:25;;;;;;;1.83;1.30;;;;;;;22.04;100.00;97208.56;5049069;28;20279;-68
2021/07/01 01:50:52;;;;;;;1.53;1.30;;;;;;;22.41;100.00;97267.44;5039301;28;20235;-68
2021/07/01 01:53:19;;;;;;;1.30;1.20;;;;;;;21.47;100.00;97113.44;5060075;28;20228;-66
2021/07/01 01:55:45;;;;;;;1.30;1.20;;;;;;;22.07;100.00;97208.63;5046126;28;20254;-67
2021/07/01 01:58:12;;;;;;;1.13;1.07;;;;;;;21.95;100.00;97188.75;5047794;28;20614;-67
2021/07/01 02:00:38;;;;;;;1.40;1.30;;;;;;;22.40;100.00;97269.09;5065326;28;20288;-66
2021/07/01 02:03:05;;;;;;;1.90;1.30;;;;;;;22.41;100.00;97268.25;5046012;28;20251;-66
2021/07/01 02:05:31;;;;;;;1.20;1.10;;;;;;;22.25;100.00;97244.84;5049928;28;20329;-66
2021/07/01 02:07:58;;;;;;;1.97;1.20;;;;;;;22.25;100.00;97250.84;5042088;28;20196;-66
2021/07/01 02:10:26;;;;;;;1.30;1.20;;;;;;;22.20;100.00;97233.69;5049316;28;20239;-64
2021/07/01 02:12:53;;;;;;;1.23;1.10;;;;;;;22.13;100.00;97224.09;5031059;28;20279;-66
2021/07/01 02:15:22;;;;;;;1.30;1.20;;;;;;;22.12;100.00;97223.28;5046688;28;20273;-67
2021/07/01 02:17:52;;;;;;;1.47;1.30;;;;;;;22.32;100.00;97257.81;5049785;28;20677;-67
2021/07/01 02:20:20;;;;;;;1.20;1.10;;;;;;;22.44;100.00;97275.16;5049254;28;20227;-66
2021/07/01 02:22:48;;;;;;;1.63;1.20;;;;;;;22.44;100.00;97275.16;5015987;28;20205;-67
2021/07/01 02:25:14;;;;;;;1.40;1.30;;;;;;;22.25;100.00;97243.19;5018101;28;20232;-68
2021/07/01 02:27:41;;;;;;;4.23;1.47;;;;;;;22.42;100.00;97275.13;5038255;28;20216;-67
2021/07/01 02:30:10;;;;;;;0.93;0.93;;;;;;;22.42;100.00;97284.50;5043925;28;20287;-67
2021/07/01 02:32:37;;;;;;;1.27;1.17;;;;;;;21.52;100.00;97139.94;5049758;28;20209;-65
2021/07/01 02:35:07;;;;;;;2.10;1.27;;;;;;;22.31;100.00;97261.22;5042935;28;20274;-67
2021/07/01 02:37:34;;;;;;;1.23;1.00;;;;;;;22.15;100.00;97243.81;5035960;28;20219;-67
2021/07/01 02:40:03;;;;;;;1.50;1.20;;;;;;;22.10;100.00;97235.16;5044066;28;20693;-67
2021/07/01 02:42:30;;;;;;;1.70;1.10;;;;;;;22.37;100.00;97280.97;5066549;28;20192;-68
2021/07/01 02:44:56;;;;;;;1.00;1.00;;;;;;;21.19;100.00;97082.94;5052559;28;20265;-67
2021/07/01 02:47:23;;;;;;;1.00;1.00;;;;;;;21.43;100.00;97124.41;5045821;28;20286;-67
2021/07/01 02:49:50;;;;;;;1.33;1.20;;;;;;;22.35;100.00;97293.75;5059239;28;20242;-67
2021/07/01 02:52:16;;;;;;;1.20;1.10;;;;;;;21.46;100.00;97135.56;5064406;28;20231;-65
2021/07/01 02:54:43;;;;;;;1.20;1.10;;;;;;;22.12;100.00;97250.53;5061929;28;20291;-67
2021/07/01 02:57:09;;;;;;;1.63;1.07;;;;;;;21.98;100.00;97223.75;5048985;28;20220;-67
2021/07/01 02:59:36;;;;;;;1.20;1.10;;;;;;;22.25;100.00;97279.00;5030733;28;20239;-67
2021/07/01 03:02:03;;;;;;;2.13;1.03;;;;;;;22.35;100.00;97296.28;5063172;28;20291;-66
2021/07/01 03:04:29;;;;;;;1.30;1.20;;;;;;;21.50;100.00;97147.59;5050260;28;20221;-66
2021/07/01 03:06:56;;;;;;;2.93;1.20;;;;;;;22.09;100.00;97243.69;5069151;28;20313;-65
2021/07/01 03:09:23;;;;;;;1.37;1.10;;;;;;;22.25;100.00;97267.91;5051608;28;20220;-66
2021/07/01 03:11:49;;;;;;;1.43;1.13;;;;;;;22.25;100.00;97273.88;5045517;28;20593;-66
2021/07/01 03:14:17;;;;;;;1.20;1.10;;;;;;;22.29;100.00;97292.75;5030272;28;20757;-68
2021/07/01 03:16:44;;;;;;;3.33;1.10;;;;;;;20.89;100.00;97054.06;5049144;28;20228;-66
2021/07/01 03:19:10;;;;;;;1.07;1.03;;;;;;;22.34;100.00;97304.81;5056623;28;20681;-67
2021/07/01 03:21:37;;;;;;;0.90;0.90;;;;;;;22.29;100.00;97296.16;5059464;28;20295;-66
2021/07/01 03:24:04;;;;;;;2.73;1.10;;;;;;;21.55;100.00;97170.72;5059494;28;20251;-67
2021/07/01 03:26:30;;;;;;;1.10;1.00;;;;;;;21.30;100.00;97123.28;5066659;28;20766;-67
2021/07/01 03:28:57;;;;;;;1.60;0.90;;;;;;;21.39;100.00;97146.50;5068780;28;20715;-66
2021/07/01 03:31:23;;;;;;;1.43;1.03;;;;;;;22.34;100.00;97303.94;5035220;28;20548;-66
2021/07/01 03:33:50;;;;;;;1.00;1.00;;;;;;;22.23;100.00;97284.94;5060378;28;20200;-68
2021/07/01 03:36:17;;;;;;;1.30;1.20;;;;;;;22.18;100.00;97284.84;5071284;28;20215;-65
2021/07/01 03:38:44;;;;;;;1.20;1.10;;;;;;;22.11;100.00;97277.81;5051569;28;20681;-68
2021/07/01 03:41:11;;;;;;;1.03;1.03;;;;;;;21.31;100.00;97134.34;5052740;28;20195;-67
2021/07/01 03:43:42;;;;;;;1.00;1.00;;;;;;;21.27;100.00;97122.31;5047969;28;20246;-66
2021/07/01 03:46:09;;;;;;;2.60;1.20;;;;;;;22.30;100.00;97302.16;5034381;28;20220;-67
2021/07/01 03:48:35;;;;;;;1.07;1.07;;;;;;;21.95;100.00;97249.28;5069479;28;20200;-68
2021/07/01 03:51:04;;;;;;;1.73;1.00;;;;;;;22.06;100.00;97282.00;5043699;28;20231;-68
2021/07/01 03:53:32;;;;;;;1.13;1.03;;;;;;;22.32;100.00;97318.44;5015298;28;20266;-68
2021/07/01 03:55:59;;;;;;;1.23;1.13;;;;;;;21.98;100.00;97257.03;5052509;28;20196;-67
2021/07/01 03:58:25;;;;;;;1.07;1.00;;;;;;;22.12;100.00;97288.94;5040078;28;20605;-68
2021/07/01 04:00:52;;;;;;;1.17;1.07;;;;;;;22.23;100.00;97303.69;5063758;28;20197;-67
2021/07/01 04:03:19;;;;;;;1.70;1.10;;;;;;;21.72;100.00;97212.91;5031467;28;20247;-67
2021/07/01 04:05:45;;;;;;;1.23;1.13;;;;;;;22.07;100.00;97275.16;5035439;28;20626;-64
2021/07/01 04:08:16;;;;;;;1.23;1.13;;;;;;;22.16;100.00;97291.59;5042876;28;20568;-64
2021/07/01 04:10:43;;;;;;;1.00;1.00;;;;;;;21.48;100.00;97184.19;5021705;28;20283;-66
2021/07/01 04:13:09;;;;;;;1.00;1.00;;;;;;;22.11;100.00;97293.19;5032995;28;20197;-65
2021/07/01 04:15:36;;;;;;;1.03;1.00;;;;;;;22.30;100.00;97323.50;5019643;28;20701;-66
2021/07/01 04:18:08;;;;;;;0.90;0.90;;;;;;;22.03;100.00;97287.03;5037461;28;20745;-66
2021/07/01 04:20:35;;;;;;;1.10;1.00;;;;;;;21.32;100.00;97167.59;5026308;28;20212;-66
2021/07/01 04:23:01;;;;;;;1.20;0.90;;;;;;;21.97;100.00;97278.34;5037122;28;20308;-65
2021/07/01 04:25:28;;;;;;;0.93;0.93;;;;;;;21.61;100.00;97217.75;5022845;28;20259;-66
2021/07/01 04:27:55;;;;;;;0.90;0.90;;;;;;;22.20;100.00;97313.88;5048638;28;20278;-66
2021/07/01 04:30:21;;;;;;;3.13;1.20;;;;;;;22.23;100.00;97313.94;5044017;28;20200;-66
2021/07/01 04:32:48;;;;;;;1.20;1.10;;;;;;;22.31;100.00;97329.47;5031280;28;20604;-66
2021/07/01 04:35:14;;;;;;;2.23;1.10;;;;;;;22.21;100.00;97315.63;5049474;28;20258;-66
2021/07/01 04:37:41;;;;;;;1.47;1.10;;;;;;;22.13;100.00;97298.34;5045719;28;20199;-66
2021/07/01 04:40:09;;;;;;;3.83;1.20;;;;;;;22.15;100.00;97307.81;5064287;28;20312;-66
2021/07/01 04:42:36;;;;;;;1.20;1.10;;;;;;;21.97;100.00;97271.53;5040536;28;20720;-65
2021/07/01 04:45:05;;;;;;;1.03;0.90;;;;;;;22.24;100.00;97318.25;5062587;28;20277;-67
2021/07/01 04:47:31;;;;;;;1.50;1.17;;;;;;;22.09;100.00;97291.44;5025411;28;20232;-66
2021/07/01 04:49:59;;;;;;;1.20;1.10;;;;;;;22.24;100.00;97320.81;5048698;28;20192;-66
2021/07/01 04:52:27;;;;;;;1.10;1.10;;;;;;;21.76;100.00;97239.47;5043742;28;20196;-66
2021/07/01 04:54:54;;;;;;;2.10;1.20;;;;;;;22.03;100.00;97288.72;5040233;28;20220;-66
2021/07/01 04:57:21;;;;;;;1.00;1.00;;;;;;;22.30;100.00;97328.63;5040419;28;20232;-65
2021/07/01 04:59:47;;;;;;;1.10;0.90;;;;;;;21.41;100.00;97193.38;5055661;28;20204;-66
2021/07/01 05:02:14;;;;;;;1.33;0.93;;;;;;;22.31;100.00;97343.16;5042352;28;20249;-66
2021/07/01 05:04:41;;;;;;;1.07;1.07;;;;;;;21.87;100.00;97264.47;5032337;28;20220;-66
2021/07/01 05:07:08;;;;;;;1.00;1.00;;;;;;;22.13;100.00;97306.00;5048285;28;20303;-65
2021/07/01 05:09:34;;;;;;;1.30;1.20;;;;;;;22.07;100.00;97295.63;5048742;28;20287;-66
2021/07/01 05:12:01;;;;;;;1.00;0.97;;;;;;;22.32;100.00;97333.78;5007238;28;20197;-66
2021/07/01 05:14:27;;;;;;;1.17;1.07;;;;;;;22.31;100.00;97337.16;5058975;28;20766;-66
2021/07/01 05:16:54;;;;;;;1.00;1.00;;;;;;;22.18;100.00;97318.09;5064136;28;20192;-66
2021/07/01 05:19:21;;;;;;;1.50;1.00;;;;;;;22.20;100.00;97318.16;5049025;28;20211;-66
2021/07/01 05:21:47;;;;;;;0.90;0.90;;;;;;;22.04;100.00;97288.75;5051713;28;20235;-65
2021/07/01 05:24:14;;;;;;;1.07;1.00;;;;;;;21.89;100.00;97261.94;5047514;28;20220;-66
2021/07/01 05:26:41;;;;;;;1.00;1.00;;;;;;;22.16;100.00;97314.63;5094245;22;20319;-65
2021/07/01 05:29:07;;;;;;;1.20;1.10;;;;;;;22.26;100.00;97333.66;5023075;28;20300;-66
2021/07/01 05:31:54;;;;;;;1.00;1.00;;;;;;;22.31;100.00;97340.59;5017313;28;20210;-65
2021/07/01 05:34:21;;;;;;;1.10;1.10;;;;;;;20.93;100.00;97112.94;5033496;28;20246;-65
2021/07/01 05:36:47;;;;;;;1.00;1.00;;;;;;;22.31;100.00;97348.28;5017991;28;20214;-67
2021/07/01 05:39:14;;;;;;;1.17;1.07;;;;;;;22.31;100.00;97353.41;5025664;28;20634;-66
2021/07/01 05:41:40;;;;;;;2.07;1.27;;;;;;;22.31;100.00;97349.97;5015743;28;20743;-66
2021/07/01 05:44:07;;;;;;;1.93;1.27;;;;;;;22.31;100.00;97345.72;5015374;28;20782;-65
2021/07/01 05:46:34;;;;;;;1.20;1.10;;;;;;;22.30;100.00;97346.56;5015594;28;20897;-65
2021/07/01 05:49:00;;;;;;;1.03;1.03;;;;;;;22.31;100.00;97352.53;5015191;28;20260;-65
2021/07/01 05:51:29;;;;;;;3.13;1.20;;;;;;;22.31;100.00;97348.28;5020295;28;20273;-65
2021/07/01 05:54:10;;;;;;;1.10;1.10;;;;;;;22.31;100.00;97344.84;5017066;28;20234;-66
2021/07/01 05:56:41;;;;;;;1.13;1.00;;;;;;;22.30;100.00;97351.69;5009472;28;20261;-65
2021/07/01 05:59:08;;;;;;;1.40;1.30;;;;;;;22.31;100.00;97349.97;5015875;28;20285;-65
2021/07/01 06:01:35;;;;;;;2.90;1.17;;;;;;;22.31;100.00;97349.97;5025707;28;20202;-66
2021/07/01 06:04:03;;;;;;;1.70;1.03;;;;;;;22.30;100.00;97351.69;5015547;28;20206;-66
2021/07/01 06:06:31;;;;;;;1.57;1.10;;;;;;;21.73;100.00;97255.53;5015499;28;20300;-65
2021/07/01 06:08:58;;;;;;;1.33;1.23;;;;;;;22.31;100.00;97362.75;5019739;28;20294;-65
2021/07/01 06:11:25;;;;;;;1.30;1.00;;;;;;;22.31;100.00;97355.97;4982414;28;20236;-65
2021/07/01 06:13:51;;;;;;;1.03;1.03;;;;;;;22.30;100.00;97351.69;5014195;28;20608;-65
2021/07/01 06:16:18;;;;;;;1.13;1.03;;;;;;;22.32;100.00;97359.38;5000765;28;20257;-65
2021/07/01 06:18:44;;;;;;;1.20;1.10;;;;;;;22.31;100.00;97355.06;5016080;28;20315;-66
2021/07/01 06:21:11;;;;;;;1.30;1.20;;;;;;;22.31;100.00;97358.53;5014767;28;20635;-64
2021/07/01 06:23:39;;;;;;;1.20;1.10;;;;;;;22.31;100.00;97362.75;5014564;28;20742;-65
2021/07/01 06:26:06;;;;;;;1.20;1.10;;;;;;;22.25;100.00;97348.13;5016230;28;20253;-66
2021/07/01 06:28:37;;;;;;;2.77;1.37;;;;;;;22.31;100.00;97357.63;5020834;28;20257;-64
2021/07/01 06:31:04;;;;;;;1.20;1.10;;;;;;;22.31;100.00;97373.00;5017797;28;20223;-65
2021/07/01 06:33:31;;;;;;;2.43;1.50;;;;;;;22.30;100.00;97364.47;5015158;28;20238;-66
2021/07/01 06:35:57;;;;;;;1.40;1.10;;;;;;;22.31;100.00;97370.44;5014326;28;20249;-66
2021/07/01 06:38:24;;;;;;;3.03;1.27;;;;;;;22.08;100.00;97333.22;5006307;28;20221;-66
2021/07/01 06:40:51;;;;;;;3.93;1.40;;;;;;;22.31;100.00;97362.75;4996917;28;20286;-66
2021/07/01 06:43:21;;;;;;;2.50;1.27;;;;;;;21.34;100.00;97213.66;5016822;28;20644;-66
2021/07/01 06:45:49;;;;;;;4.43;1.30;;;;;;;22.30;100.00;97376.41;5021999;28;20305;-64
2021/07/01 06:48:16;;;;;;;2.33;1.60;;;;;;;22.29;100.00;97380.66;5015591;28;20218;-66
2021/07/01 06:50:42;;;;;;;5.80;1.40;;;;;;;22.29;100.00;97379.81;5014194;28;20662;-64
2021/07/01 06:53:10;;;;;;;1.30;1.20;;;;;;;22.29;100.00;97390.03;5014475;28;20226;-63
2021/07/01 06:55:37;;;;;;;3.73;1.63;;;;;;;22.29;100.00;97390.03;4991990;28;20223;-65
2021/07/01 06:58:05;;;;;;;6.10;1.43;;;;;;;22.29;100.00;97395.16;5012268;28;20191;-66
2021/07/01 07:00:31;;;;;;;1.10;1.10;;;;;;;22.28;100.00;97394.28;5015468;28;20237;-66
2021/07/01 07:02:58;;;;;;;1.57;1.20;;;;;;;22.28;100.00;97395.97;5020457;28;20626;-64
2021/07/01 07:05:25;;;;;;;2.10;1.27;;;;;;;22.28;100.00;97395.97;5009972;28;20256;-66
2021/07/01 07:07:51;;;;;;;2.50;1.10;;;;;;;22.29;100.00;97401.13;5013692;28;20305;-65
2021/07/01 07:10:19;;;;;;;1.30;1.20;;;;;;;22.28;100.00;97401.09;5014958;28;20205;-65
2021/07/01 07:12:48;;;;;;;2.57;1.20;;;;;;;22.28;100.00;97401.09;5013719;28;20221;-66
2021/07/01 07:15:17;;;;;;;1.13;1.10;;;;;;;22.23;100.00;97392.47;5011278;28;20325;-64
2021/07/01 07:17:48;;;;;;;1.20;1.10;;;;;;;22.28;100.00;97403.66;5013847;28;20198;-65
2021/07/01 07:20:15;;;;;;;1.00;1.00;;;;;;;22.29;100.00;97410.53;5018628;28;20206;-64
2021/07/01 07:22:42;;;;;;;1.30;1.20;;;;;;;22.28;100.00;97399.41;5021259;28;20240;-65
2021/07/01 07:25:10;;;;;;;1.40;1.30;;;;;;;22.27;100.00;97397.69;5014130;28;20301;-65
2021/07/01 07:27:37;;;;;;;1.20;1.10;;;;;;;22.29;100.00;97402.84;5014018;28;20273;-65
2021/07/01 07:30:05;;;;;;;1.40;1.17;;;;;;;22.28;100.00;97407.09;5013691;28;20198;-66
2021/07/01 07:32:32;;;;;;;2.30;1.17;;;;;;;22.28;100.00;97401.97;5014553;28;20290;-66
2021/07/01 07:35:00;;;;;;;1.23;1.13;;;;;;;22.28;100.00;97396.84;5012122;28;20218;-63
2021/07/01 07:37:27;;;;;;;1.50;1.10;;;;;;;22.29;100.00;97405.41;5015639;28;20226;-65
2021/07/01 07:39:54;;;;;;;0.90;0.90;;;;;;;22.28;100.00;97404.53;5019372;28;20225;-64
2021/07/01 07:42:20;;;;;;;2.37;1.10;;;;;;;22.28;100.00;97404.53;5015274;28;20293;-65
2021/07/01 07:44:50;;;;;;;1.70;1.30;;;;;;;22.28;100.00;97406.22;5021903;28;20237;-66
2021/07/01 07:47:16;;;;;;;1.50;1.20;;;;;;;22.28;100.00;97408.78;5014330;28;20222;-61
2021/07/01 07:49:43;;;;;;;1.60;1.17;;;;;;;22.29;100.00;97407.97;5012648;28;20234;-65
2021/07/01 07:52:10;;;;;;;1.27;1.13;;;;;;;22.28;100.00;97401.09;5014618;28;20198;-65
2021/07/01 07:54:53;;;;;;;1.20;1.10;;;;;;;22.13;100.00;97380.22;5018107;28;20240;-65
2021/07/01 07:57:22;;;;;;;1.97;1.27;;;;;;;22.28;100.00;97403.66;5016405;28;20612;-62
2021/07/01 07:59:50;;;;;;;1.27;1.10;;;;;;;22.23;100.00;97405.25;5017262;28;20197;-66
2021/07/01 08:02:44;;;;;;;1.13;1.00;;;;;;;22.27;100.00;97405.38;5018218;28;20226;-62
2021/07/01 08:05:11;;;;;;;2.00;1.10;;;;;;;22.28;100.00;97406.22;5012470;28;20261;-64
2021/07/01 08:07:40;;;;;;;1.30;1.20;;;;;;;22.28;100.00;97408.78;5011366;28;20245;-65
2021/07/01 08:10:13;;;;;;;1.30;1.20;;;;;;;22.29;100.00;97420.75;5013681;28;20205;-65
2021/07/01 08:12:41;;;;;;;2.17;1.10;;;;;;;22.27;100.00;97413.03;5013984;28;20280;-65
2021/07/01 08:15:11;;;;;;;2.27;1.30;;;;;;;22.27;100.00;97412.16;5012766;28;20214;-65
2021/07/01 08:17:40;;;;;;;1.27;1.17;;;;;;;22.26;100.00;97415.56;5014801;28;20194;-66
2021/07/01 08:20:09;;;;;;;1.20;1.10;;;;;;;22.26;100.00;97411.28;5013520;28;20194;-65
2021/07/01 08:22:45;;;;;;;3.47;1.20;;;;;;;22.26;100.00;97410.44;5006730;28;20194;-65
2021/07/01 08:25:12;;;;;;;2.07;1.20;;;;;;;22.26;100.00;97420.69;5011649;28;20288;-65
2021/07/01 08:27:43;;;;;;;1.30;1.20;;;;;;;22.26;100.00;97425.81;5011717;28;20710;-63
2021/07/01 08:30:11;;;;;;;1.30;1.20;;;;;;;22.26;100.00;97415.56;5012631;28;20202;-65
2021/07/01 08:32:38;;;;;;;1.00;1.00;;;;;;;22.25;100.00;97413.81;5006330;28;20397;-65
2021/07/01 08:35:06;;;;;;;1.40;1.30;;;;;;;22.25;100.00;97412.13;5010114;28;20313;-66
2021/07/01 08:37:33;;;;;;;2.33;1.30;;;;;;;22.26;100.00;97415.56;5012419;28;20245;-65
2021/07/01 08:40:00;;;;;;;1.10;1.10;;;;;;;22.26;100.00;97410.44;5017373;28;20227;-63
2021/07/01 08:42:35;;;;;;;1.20;1.10;;;;;;;22.25;100.00;97401.91;5012863;28;20229;-66
2021/07/01 08:45:07;;;;;;;1.20;1.10;;;;;;;22.25;100.00;97412.13;5009386;28;20237;-66
2021/07/01 08:47:34;;;;;;;1.33;1.23;;;;;;;22.20;100.00;97406.03;5011279;28;20253;-66
2021/07/01 08:50:05;;;;;;;1.33;1.20;;;;;;;22.26;100.00;97420.69;4996486;28;20202;-65
2021/07/01 08:52:33;;;;;;;1.43;1.20;;;;;;;22.26;100.00;97420.69;5015239;28;20229;-65
2021/07/01 08:55:19;;;;;;;1.00;1.00;;;;;;;22.26;100.00;97415.56;5011749;28;20224;-64
2021/07/01 08:57:47;;;;;;;1.30;1.20;;;;;;;22.26;100.00;97420.69;4996272;28;20213;-65
2021/07/01 09:00:14;;;;;;;1.33;1.23;;;;;;;22.26;100.00;97423.25;5014753;28;20611;-65
2021/07/01 09:02:46;;;;;;;2.40;1.10;;;;;;;22.27;100.00;97432.66;5016167;28;20233;-65
2021/07/01 09:05:17;;;;;;;1.97;1.30;;;;;;;22.27;100.00;97430.09;5016304;28;20267;-65
2021/07/01 09:07:53;;;;;;;2.57;1.30;;;;;;;22.26;100.00;97429.22;5014884;28;20266;-65
2021/07/01 09:10:21;;;;;;;2.97;1.10;;;;;;;22.26;100.00;97425.81;5020146;28;20747;-62
2021/07/01 09:12:55;;;;;;;1.73;1.10;;;;;;;22.26;100.00;97431.78;5017139;28;20238;-64
2021/07/01 09:15:22;;;;;;;1.93;1.20;;;;;;;22.26;100.00;97431.78;5017364;28;20227;-65
2021/07/01 09:17:52;;;;;;;1.13;1.03;;;;;;;22.26;100.00;97434.34;5016235;28;20190;-64
2021/07/01 09:20:21;;;;;;;1.20;1.20;;;;;;;22.22;100.00;97426.53;5027231;28;20210;-65
2021/07/01 09:22:48;;;;;;;1.27;1.20;;;;;;;22.27;100.00;97432.66;5014985;28;20195;-66
2021/07/01 09:25:15;;;;;;;2.53;1.23;;;;;;;22.21;100.00;97427.38;5016851;28;20238;-66
2021/07/01 09:27:43;;;;;;;1.30;1.20;;;;;;;22.26;100.00;97436.91;5014961;28;20656;-66
2021/07/01 09:30:12;;;;;;;1.20;1.10;;;;;;;22.26;100.00;97436.91;5015822;28;20313;-65
2021/07/01 09:32:38;;;;;;;1.20;1.10;;;;;;;22.26;100.00;97439.44;5007954;28;20226;-66
2021/07/01 09:35:05;;;;;;;1.33;1.20;;;;;;;22.27;100.00;97437.78;5026795;28;20324;-66
2021/07/01 09:37:50;;;;;;;1.10;1.00;;;;;;;22.27;100.00;97436.09;5021252;28;20341;-65
2021/07/01 09:40:21;;;;;;;1.23;1.13;;;;;;;22.27;100.00;97436.09;5025895;28;20331;-65
2021/07/01 09:42:57;;;;;;;1.27;1.17;;;;;;;22.26;100.00;97430.94;5015761;28;20198;-64
2021/07/01 09:45:24;;;;;;;1.00;1.00;;;;;;;22.26;100.00;97431.78;5016892;28;20248;-65
2021/07/01 09:47:52;;;;;;;1.30;1.20;;;;;;;22.26;100.00;97424.09;5015287;28;20254;-65
2021/07/01 09:50:19;;;;;;;1.20;1.10;;;;;;;22.26;100.00;97436.91;5022097;28;20240;-65
2021/07/01 09:52:45;;;;;;;1.33;1.13;;;;;;;22.20;100.00;97421.38;5003715;28;20230;-64
2021/07/01 09:55:12;;;;;;;1.30;1.20;;;;;;;22.26;100.00;97429.22;5001513;28;20257;-64
2021/07/01 09:57:40;;;;;;;1.23;1.13;;;;;;;22.26;100.00;97426.66;5017470;28;20233;-64
2021/07/01 10:00:12;;;;;;;1.10;1.10;;;;;;;21.77;100.00;97343.50;5016303;28;20213;-66
2021/07/01 10:02:39;;;;;;;0.90;0.90;;;;;;;21.91;100.00;97378.84;5000416;28;20502;-64
2021/07/01 10:05:07;;;;;;;0.90;0.90;;;;;;;21.93;100.00;97363.53;5013334;28;20246;-64
2021/07/01 10:07:34;;;;;;;1.00;1.00;;;;;;;22.27;100.00;97427.53;5028614;28;20285;-64
2021/07/01 10:10:21;;;;;;;1.40;1.30;;;;;;;22.26;100.00;97424.09;4988771;28;20293;-64
2021/07/01 10:12:51;;;;;;;1.00;1.00;;;;;;;21.54;100.00;97302.84;5018235;28;20202;-64
2021/07/01 10:15:24;;;;;;;1.30;1.20;;;;;;;22.27;100.00;97427.53;5018739;28;20285;-61
2021/07/01 10:18:03;;;;;;;1.00;1.00;;;;;;;22.27;100.00;97437.78;5028805;28;20229;-65
2021/07/01 10:20:50;;;;;;;2.73;1.07;;;;;;;22.27;100.00;97435.22;5015668;28;20210;-62
2021/07/01 10:23:35;;;;;;;1.20;1.10;;;;;;;22.27;100.00;97432.66;5025782;28;20284;-65
2021/07/01 10:26:11;;;;;;;1.30;1.20;;;;;;;22.26;100.00;97430.94;5019941;28;20230;-65
2021/07/01 10:28:38;;;;;;;1.03;1.03;;;;;;;21.52;100.00;97303.59;5012095;28;20246;-64
2021/07/01 10:31:08;;;;;;;1.00;1.00;;;;;;;21.99;100.00;97396.97;5016979;28;20206;-63
2021/07/01 10:33:36;;;;;;;1.00;1.00;;;;;;;22.07;100.00;97413.34;5019004;28;20202;-62
2021/07/01 10:36:04;;;;;;;1.40;1.10;;;;;;;21.90;100.00;97363.47;5029041;28;20301;-64
2021/07/01 10:38:46;;;;;;;1.00;1.00;;;;;;;21.54;100.00;97299.41;5021343;28;20233;-63
2021/07/01 10:41:34;;;;;;;1.23;1.13;;;;;;;22.26;100.00;97424.09;5022361;28;20221;-62
2021/07/01 10:44:01;;;;;;;1.10;1.10;;;;;;;22.26;100.00;97416.41;5018583;28;20203;-64
2021/07/01 10:46:44;;;;;;;1.20;1.10;;;;;;;22.25;100.00;97414.69;5026575;28;20249;-62
2021/07/01 10:49:12;;;;;;;0.93;0.93;;;;;;;21.79;100.00;97334.19;5018623;28;20221;-64
2021/07/01 10:51:55;;;;;;;1.10;1.00;;;;;;;22.26;100.00;97421.53;5001116;28;20191;-64
2021/07/01 10:54:22;;;;;;;1.23;1.20;;;;;;;22.06;100.00;97384.34;5023284;28;20551;-64
2021/07/01 10:57:05;;;;;;;1.00;1.00;;;;;;;22.27;100.00;97428.41;5025085;28;20202;-65
2021/07/01 10:59:50;;;;;;;0.90;0.90;;;;;;;21.83;100.00;97357.31;5009046;28;20256;-65
2021/07/01 11:02:35;;;;;;;1.10;1.10;;;;;;;21.70;100.00;97339.88;5024394;28;20218;-64
2021/07/01 11:05:03;;;;;;;1.00;1.00;;;;;;;21.80;100.00;97354.69;4998120;28;20219;-63
2021/07/01 11:07:40;;;;;;;0.80;0.80;;;;;;;22.27;100.00;97427.53;5014133;28;20198;-64
2021/07/01 11:10:11;;;;;;;1.03;1.03;;;;;;;22.20;100.00;97423.09;5014840;28;20198;-65
2021/07/01 11:12:42;;;;;;;2.60;1.10;;;;;;;21.98;100.00;97383.28;4990201;28;20237;-64
2021/07/01 11:15:17;;;;;;;1.00;1.00;;;;;;;22.07;100.00;97405.69;5007460;28;20229;-64
2021/07/01 11:17:44;;;;;;;1.40;1.10;;;;;;;22.22;100.00;97423.97;5013187;28;20617;-64
2021/07/01 11:20:21;;;;;;;1.30;1.20;;;;;;;22.27;100.00;97430.97;5002456;28;20234;-64
2021/07/01 11:22:52;;;;;;;1.20;1.07;;;;;;;22.26;100.00;97428.38;5010443;28;20344;-64
2021/07/01 11:27:54;;;;;;;1.10;1.10;;;;;;;22.27;100.00;97417.28;5034339;28;20213;-60
2021/07/01 11:30:25;;;;;;;1.07;1.00;;;;;;;22.27;100.00;97428.41;5023207;28;20229;-60
2021/07/01 11:33:13;;;;;;;1.10;1.03;;;;;;;22.27;100.00;97420.72;5032409;28;20259;-59